RPC6167 RPLL-RPVA
Flight info
| Callsign | RPC6167 |
|---|---|
| Flight time | N/A |
| Altitude | 15000 |
| Route | IPATA2R/06 IPATA B462 ARREX ARREX2R |
| Aircraft | BE58/L-SDFGRY/C |
Departure
| Time | N/A |
|---|---|
| Airport | Ninoy Aquino International Airport (RPLL) |
Arrival
| Time | 2026-04-16 06:08 |
|---|---|
| Airport | Daniel Z. Romualdez Airport (RPVA) |
| Time | Latitude | Longitude | Altitude | Speed | Heading |
|---|---|---|---|---|---|
| 2026-04-16 04:38 | 14.03043 | 121.60971 | 14974 ft | 198 kts | 126° |
| 2026-04-16 04:38 | 14.02162 | 121.62062 | 14989 ft | 198 kts | 126° |
| 2026-04-16 04:38 | 14.01279 | 121.63156 | 14988 ft | 199 kts | 126° |
| 2026-04-16 04:39 | 14.00391 | 121.64257 | 14981 ft | 199 kts | 126° |
| 2026-04-16 04:39 | 13.99502 | 121.65356 | 14978 ft | 199 kts | 126° |
| 2026-04-16 04:39 | 13.98615 | 121.66455 | 14974 ft | 199 kts | 126° |
| 2026-04-16 04:39 | 13.97726 | 121.67555 | 14977 ft | 199 kts | 126° |
| 2026-04-16 04:40 | 13.96838 | 121.68654 | 14985 ft | 200 kts | 126° |
| 2026-04-16 04:40 | 13.95943 | 121.69762 | 14971 ft | 201 kts | 126° |
| 2026-04-16 04:40 | 13.95047 | 121.70870 | 14967 ft | 201 kts | 126° |
| 2026-04-16 04:40 | 13.94151 | 121.71979 | 14956 ft | 200 kts | 126° |
| 2026-04-16 04:41 | 13.93266 | 121.73074 | 14952 ft | 200 kts | 126° |
| 2026-04-16 04:41 | 13.92370 | 121.74181 | 14966 ft | 200 kts | 126° |
| 2026-04-16 04:42 | 13.89658 | 121.77536 | 14941 ft | 200 kts | 126° |
| 2026-04-16 04:42 | 13.88760 | 121.78646 | 14948 ft | 200 kts | 126° |
| 2026-04-16 04:42 | 13.87872 | 121.79743 | 14954 ft | 200 kts | 126° |
| 2026-04-16 04:42 | 13.86981 | 121.80844 | 14939 ft | 200 kts | 126° |
| 2026-04-16 04:43 | 13.86242 | 121.82029 | 14927 ft | 195 kts | 113° |
| 2026-04-16 04:43 | 13.85387 | 121.83126 | 14949 ft | 198 kts | 130° |
| 2026-04-16 04:43 | 13.84436 | 121.84162 | 14944 ft | 199 kts | 129° |
| 2026-04-16 04:43 | 13.83495 | 121.85235 | 14936 ft | 199 kts | 128° |
| 2026-04-16 04:44 | 13.82582 | 121.86307 | 14941 ft | 200 kts | 127° |
| 2026-04-16 04:44 | 13.81673 | 121.87394 | 14916 ft | 200 kts | 127° |
| 2026-04-16 04:44 | 13.80775 | 121.88480 | 14894 ft | 197 kts | 126° |
| 2026-04-16 04:44 | 13.79893 | 121.89552 | 14947 ft | 197 kts | 126° |
| 2026-04-16 04:45 | 13.79003 | 121.90637 | 14941 ft | 199 kts | 126° |
| 2026-04-16 04:45 | 13.78108 | 121.91732 | 14933 ft | 200 kts | 126° |
| 2026-04-16 04:45 | 13.77213 | 121.92827 | 14927 ft | 200 kts | 126° |
| 2026-04-16 04:45 | 13.76319 | 121.93922 | 14937 ft | 200 kts | 126° |
| 2026-04-16 04:46 | 13.75424 | 121.95017 | 14919 ft | 200 kts | 126° |
| 2026-04-16 04:46 | 13.74519 | 121.96126 | 14925 ft | 199 kts | 126° |
| 2026-04-16 04:46 | 13.73630 | 121.97214 | 14930 ft | 199 kts | 126° |
| 2026-04-16 04:46 | 13.72741 | 121.98303 | 14927 ft | 199 kts | 126° |
| 2026-04-16 04:47 | 13.71852 | 121.99390 | 14943 ft | 199 kts | 126° |
| 2026-04-16 04:47 | 13.70961 | 122.00483 | 14930 ft | 200 kts | 126° |
| 2026-04-16 04:47 | 13.70067 | 122.01576 | 14931 ft | 200 kts | 126° |
| 2026-04-16 04:47 | 13.69163 | 122.02683 | 14927 ft | 199 kts | 126° |
| 2026-04-16 04:48 | 13.68269 | 122.03777 | 14934 ft | 199 kts | 126° |
| 2026-04-16 04:48 | 13.67388 | 122.04855 | 14932 ft | 199 kts | 126° |
| 2026-04-16 04:48 | 13.66488 | 122.05956 | 14930 ft | 199 kts | 126° |
| 2026-04-16 04:48 | 13.65594 | 122.07050 | 14928 ft | 198 kts | 126° |
| 2026-04-16 04:49 | 13.64711 | 122.08130 | 14940 ft | 198 kts | 126° |
| 2026-04-16 04:49 | 13.63826 | 122.09212 | 14939 ft | 199 kts | 126° |
| 2026-04-16 04:49 | 13.62931 | 122.10307 | 14937 ft | 199 kts | 126° |
| 2026-04-16 04:49 | 13.62041 | 122.11395 | 14931 ft | 199 kts | 126° |
| 2026-04-16 04:50 | 13.61142 | 122.12494 | 14936 ft | 199 kts | 126° |
| 2026-04-16 04:50 | 13.60255 | 122.13579 | 14934 ft | 199 kts | 126° |
| 2026-04-16 04:50 | 13.59362 | 122.14670 | 14932 ft | 199 kts | 126° |
| 2026-04-16 04:50 | 13.58472 | 122.15756 | 14934 ft | 198 kts | 126° |
| 2026-04-16 04:51 | 13.57581 | 122.16846 | 14935 ft | 199 kts | 126° |
| 2026-04-16 04:51 | 13.56691 | 122.17934 | 14938 ft | 199 kts | 126° |
| 2026-04-16 04:51 | 13.55805 | 122.19015 | 14931 ft | 199 kts | 126° |
| 2026-04-16 04:51 | 13.54913 | 122.20105 | 14930 ft | 199 kts | 126° |
| 2026-04-16 04:52 | 13.54022 | 122.21193 | 14933 ft | 199 kts | 126° |
| 2026-04-16 04:52 | 13.53135 | 122.22276 | 14932 ft | 199 kts | 126° |
| 2026-04-16 04:52 | 13.52241 | 122.23367 | 14933 ft | 199 kts | 126° |
| 2026-04-16 04:52 | 13.51348 | 122.24457 | 14924 ft | 199 kts | 126° |
| 2026-04-16 04:53 | 13.50459 | 122.25543 | 14927 ft | 198 kts | 126° |
| 2026-04-16 04:53 | 13.49570 | 122.26629 | 14926 ft | 198 kts | 126° |
| 2026-04-16 04:53 | 13.48677 | 122.27718 | 14928 ft | 198 kts | 126° |
| 2026-04-16 04:53 | 13.47786 | 122.28804 | 14930 ft | 198 kts | 126° |
| 2026-04-16 04:54 | 13.46894 | 122.29894 | 14935 ft | 199 kts | 126° |
| 2026-04-16 04:54 | 13.45998 | 122.30986 | 14933 ft | 199 kts | 126° |
| 2026-04-16 04:54 | 13.45111 | 122.32068 | 14928 ft | 199 kts | 126° |
| 2026-04-16 04:54 | 13.44217 | 122.33158 | 14931 ft | 199 kts | 126° |
| 2026-04-16 04:55 | 13.43315 | 122.34258 | 14930 ft | 199 kts | 126° |
| 2026-04-16 04:55 | 13.42433 | 122.35332 | 14928 ft | 199 kts | 126° |
| 2026-04-16 04:55 | 13.41536 | 122.36427 | 14926 ft | 198 kts | 126° |
| 2026-04-16 04:55 | 13.40649 | 122.37508 | 14929 ft | 198 kts | 126° |
| 2026-04-16 04:56 | 13.39759 | 122.38593 | 14932 ft | 198 kts | 126° |
| 2026-04-16 04:56 | 13.38867 | 122.39681 | 14935 ft | 199 kts | 126° |
| 2026-04-16 04:56 | 13.37977 | 122.40765 | 14933 ft | 199 kts | 126° |
| 2026-04-16 04:56 | 13.37084 | 122.41853 | 14934 ft | 199 kts | 126° |
| 2026-04-16 04:57 | 13.36190 | 122.42941 | 14931 ft | 199 kts | 126° |
| 2026-04-16 04:57 | 13.35296 | 122.44030 | 14928 ft | 199 kts | 126° |
| 2026-04-16 04:57 | 13.34404 | 122.45117 | 14931 ft | 199 kts | 126° |
| 2026-04-16 04:57 | 13.33512 | 122.46203 | 14928 ft | 199 kts | 126° |
| 2026-04-16 04:58 | 13.32612 | 122.47298 | 14932 ft | 199 kts | 126° |
| 2026-04-16 04:58 | 13.31722 | 122.48382 | 14934 ft | 199 kts | 126° |
| 2026-04-16 04:58 | 13.30834 | 122.49463 | 14934 ft | 199 kts | 126° |
| 2026-04-16 04:58 | 13.29932 | 122.50561 | 14926 ft | 199 kts | 126° |
| 2026-04-16 04:59 | 13.29041 | 122.51644 | 14931 ft | 199 kts | 126° |
| 2026-04-16 04:59 | 13.28152 | 122.52727 | 14927 ft | 199 kts | 126° |
| 2026-04-16 04:59 | 13.27253 | 122.53821 | 14930 ft | 199 kts | 126° |
| 2026-04-16 04:59 | 13.26358 | 122.54909 | 14930 ft | 199 kts | 126° |
| 2026-04-16 05:00 | 13.25464 | 122.55997 | 14932 ft | 199 kts | 126° |
| 2026-04-16 05:00 | 13.24573 | 122.57081 | 14928 ft | 199 kts | 126° |
| 2026-04-16 05:00 | 13.23681 | 122.58166 | 14926 ft | 199 kts | 126° |
| 2026-04-16 05:00 | 13.22787 | 122.59252 | 14926 ft | 199 kts | 126° |
| 2026-04-16 05:01 | 13.21893 | 122.60339 | 14929 ft | 199 kts | 126° |
| 2026-04-16 05:01 | 13.20997 | 122.61427 | 14932 ft | 199 kts | 126° |
| 2026-04-16 05:01 | 13.20104 | 122.62514 | 14929 ft | 199 kts | 126° |
| 2026-04-16 05:01 | 13.19215 | 122.63594 | 14926 ft | 199 kts | 126° |
| 2026-04-16 05:02 | 13.18313 | 122.64690 | 14929 ft | 199 kts | 126° |
| 2026-04-16 05:02 | 13.17418 | 122.65777 | 14926 ft | 199 kts | 126° |
| 2026-04-16 05:02 | 13.16520 | 122.66868 | 14930 ft | 199 kts | 126° |
| 2026-04-16 05:02 | 13.15626 | 122.67954 | 14931 ft | 199 kts | 126° |
| 2026-04-16 05:03 | 13.14733 | 122.69039 | 14931 ft | 199 kts | 126° |
| 2026-04-16 05:03 | 13.13831 | 122.70134 | 14934 ft | 200 kts | 126° |
| 2026-04-16 05:03 | 13.12931 | 122.71227 | 14930 ft | 200 kts | 126° |
| 2026-04-16 05:04 | 13.11131 | 122.73412 | 14931 ft | 200 kts | 126° |
| 2026-04-16 05:04 | 13.10241 | 122.74491 | 14927 ft | 200 kts | 126° |
| 2026-04-16 05:04 | 13.09345 | 122.75580 | 14931 ft | 199 kts | 126° |
| 2026-04-16 05:04 | 13.08445 | 122.76672 | 14932 ft | 200 kts | 126° |
| 2026-04-16 05:05 | 13.07544 | 122.77765 | 14928 ft | 200 kts | 126° |
| 2026-04-16 05:05 | 13.06652 | 122.78848 | 14930 ft | 200 kts | 126° |
| 2026-04-16 05:05 | 13.05748 | 122.79944 | 14930 ft | 200 kts | 126° |
| 2026-04-16 05:05 | 13.04845 | 122.81038 | 14932 ft | 200 kts | 126° |
| 2026-04-16 05:06 | 13.03950 | 122.82124 | 14933 ft | 200 kts | 126° |
| 2026-04-16 05:06 | 13.03046 | 122.83221 | 14928 ft | 200 kts | 126° |
| 2026-04-16 05:06 | 13.02146 | 122.84311 | 14931 ft | 200 kts | 126° |
| 2026-04-16 05:06 | 13.01254 | 122.85394 | 14932 ft | 200 kts | 126° |
| 2026-04-16 05:07 | 13.00352 | 122.86486 | 14931 ft | 200 kts | 126° |
| 2026-04-16 05:07 | 12.99444 | 122.87586 | 14930 ft | 200 kts | 126° |
| 2026-04-16 05:07 | 12.98551 | 122.88669 | 14930 ft | 200 kts | 126° |
| 2026-04-16 05:07 | 12.97646 | 122.89766 | 14927 ft | 200 kts | 126° |
| 2026-04-16 05:08 | 12.96750 | 122.90851 | 14928 ft | 200 kts | 126° |
| 2026-04-16 05:08 | 12.95847 | 122.91944 | 14933 ft | 200 kts | 126° |
| 2026-04-16 05:08 | 12.94942 | 122.93040 | 14935 ft | 200 kts | 126° |
| 2026-04-16 05:08 | 12.94050 | 122.94122 | 14936 ft | 201 kts | 126° |
| 2026-04-16 05:09 | 12.93146 | 122.95216 | 14933 ft | 201 kts | 126° |
| 2026-04-16 05:09 | 12.92241 | 122.96313 | 14931 ft | 201 kts | 126° |
| 2026-04-16 05:09 | 12.91335 | 122.97408 | 14931 ft | 200 kts | 126° |
| 2026-04-16 05:09 | 12.90428 | 122.98507 | 14930 ft | 200 kts | 126° |
| 2026-04-16 05:10 | 12.89528 | 122.99596 | 14926 ft | 200 kts | 126° |
| 2026-04-16 05:10 | 12.88627 | 123.00687 | 14926 ft | 200 kts | 126° |
| 2026-04-16 05:10 | 12.87731 | 123.01770 | 14927 ft | 200 kts | 126° |
| 2026-04-16 05:10 | 12.86834 | 123.02856 | 14930 ft | 200 kts | 126° |
| 2026-04-16 05:11 | 12.85930 | 123.03949 | 14928 ft | 199 kts | 126° |
| 2026-04-16 05:11 | 12.85033 | 123.05034 | 14927 ft | 199 kts | 126° |
| 2026-04-16 05:11 | 12.84133 | 123.06123 | 14927 ft | 199 kts | 126° |
| 2026-04-16 05:11 | 12.83240 | 123.07202 | 14928 ft | 199 kts | 126° |
| 2026-04-16 05:12 | 12.82350 | 123.08279 | 14927 ft | 199 kts | 126° |
| 2026-04-16 05:12 | 12.81446 | 123.09371 | 14927 ft | 199 kts | 126° |
| 2026-04-16 05:12 | 12.80546 | 123.10460 | 14928 ft | 199 kts | 126° |
| 2026-04-16 05:12 | 12.79647 | 123.11546 | 14929 ft | 199 kts | 126° |
| 2026-04-16 05:13 | 12.78755 | 123.12624 | 14929 ft | 199 kts | 126° |
| 2026-04-16 05:13 | 12.77849 | 123.13719 | 14928 ft | 199 kts | 126° |
| 2026-04-16 05:13 | 12.76953 | 123.14803 | 14929 ft | 199 kts | 126° |
| 2026-04-16 05:13 | 12.76050 | 123.15893 | 14928 ft | 199 kts | 126° |
| 2026-04-16 05:14 | 12.75151 | 123.16979 | 14928 ft | 199 kts | 126° |
| 2026-04-16 05:14 | 12.74250 | 123.18066 | 14926 ft | 199 kts | 126° |
| 2026-04-16 05:14 | 12.73347 | 123.19158 | 14927 ft | 199 kts | 126° |
| 2026-04-16 05:14 | 12.72456 | 123.20234 | 14927 ft | 199 kts | 126° |
| 2026-04-16 05:15 | 12.71553 | 123.21325 | 14927 ft | 199 kts | 126° |
| 2026-04-16 05:15 | 12.70655 | 123.22408 | 14929 ft | 199 kts | 126° |
| 2026-04-16 05:15 | 12.69767 | 123.23480 | 14927 ft | 199 kts | 126° |
| 2026-04-16 05:15 | 12.68869 | 123.24564 | 14926 ft | 199 kts | 126° |
| 2026-04-16 05:16 | 12.67972 | 123.25646 | 14927 ft | 199 kts | 126° |
| 2026-04-16 05:16 | 12.67075 | 123.26729 | 14928 ft | 199 kts | 126° |
| 2026-04-16 05:16 | 12.66175 | 123.27814 | 14929 ft | 199 kts | 126° |
| 2026-04-16 05:16 | 12.65276 | 123.28899 | 14927 ft | 199 kts | 126° |
| 2026-04-16 05:17 | 12.64380 | 123.29981 | 14930 ft | 199 kts | 126° |
| 2026-04-16 05:17 | 12.63482 | 123.31063 | 14930 ft | 199 kts | 126° |
| 2026-04-16 05:17 | 12.62585 | 123.32145 | 14925 ft | 199 kts | 126° |
| 2026-04-16 05:17 | 12.61686 | 123.33229 | 14929 ft | 199 kts | 126° |
| 2026-04-16 05:18 | 12.60792 | 123.34307 | 14928 ft | 199 kts | 126° |
| 2026-04-16 05:18 | 12.59884 | 123.35401 | 14926 ft | 199 kts | 126° |
| 2026-04-16 05:18 | 12.58986 | 123.36483 | 14926 ft | 199 kts | 126° |
| 2026-04-16 05:18 | 12.58091 | 123.37562 | 14928 ft | 199 kts | 126° |
| 2026-04-16 05:19 | 12.57199 | 123.38638 | 14927 ft | 199 kts | 126° |
| 2026-04-16 05:19 | 12.56305 | 123.39714 | 14928 ft | 199 kts | 126° |
| 2026-04-16 05:19 | 12.55401 | 123.40803 | 14929 ft | 199 kts | 126° |
| 2026-04-16 05:19 | 12.54503 | 123.41885 | 14931 ft | 199 kts | 126° |
| 2026-04-16 05:20 | 12.53608 | 123.42963 | 14930 ft | 199 kts | 126° |
| 2026-04-16 05:20 | 12.52712 | 123.44042 | 14926 ft | 199 kts | 126° |
| 2026-04-16 05:20 | 12.51806 | 123.45135 | 14927 ft | 199 kts | 126° |
| 2026-04-16 05:20 | 12.50911 | 123.46211 | 14928 ft | 199 kts | 126° |
| 2026-04-16 05:21 | 12.50017 | 123.47288 | 14928 ft | 199 kts | 126° |
| 2026-04-16 05:21 | 12.49111 | 123.48378 | 14927 ft | 199 kts | 126° |
| 2026-04-16 05:21 | 12.48216 | 123.49455 | 14926 ft | 199 kts | 126° |
| 2026-04-16 05:21 | 12.47316 | 123.50539 | 14929 ft | 199 kts | 126° |
| 2026-04-16 05:22 | 12.46427 | 123.51608 | 14929 ft | 199 kts | 126° |
| 2026-04-16 05:22 | 12.45532 | 123.52685 | 14928 ft | 199 kts | 126° |
| 2026-04-16 05:22 | 12.44629 | 123.53773 | 14930 ft | 199 kts | 126° |
| 2026-04-16 05:22 | 12.43735 | 123.54848 | 14928 ft | 199 kts | 126° |
| 2026-04-16 05:23 | 12.42836 | 123.55929 | 14927 ft | 199 kts | 126° |
| 2026-04-16 05:23 | 12.41932 | 123.57016 | 14928 ft | 199 kts | 126° |
| 2026-04-16 05:23 | 12.41038 | 123.58091 | 14929 ft | 199 kts | 126° |
| 2026-04-16 05:23 | 12.40141 | 123.59170 | 14930 ft | 199 kts | 126° |
| 2026-04-16 05:24 | 12.39247 | 123.60245 | 14930 ft | 199 kts | 126° |
| 2026-04-16 05:24 | 12.38344 | 123.61330 | 14930 ft | 199 kts | 126° |
| 2026-04-16 05:24 | 12.37446 | 123.62410 | 14930 ft | 199 kts | 126° |
| 2026-04-16 05:24 | 12.36460 | 123.63403 | 14930 ft | 202 kts | 141° |
| 2026-04-16 05:25 | 12.35506 | 123.64407 | 14937 ft | 197 kts | 121° |
| 2026-04-16 05:25 | 12.34695 | 123.65560 | 14934 ft | 197 kts | 122° |
| 2026-04-16 05:25 | 12.33872 | 123.66674 | 14934 ft | 198 kts | 123° |
| 2026-04-16 05:25 | 12.33011 | 123.67795 | 14932 ft | 199 kts | 124° |
| 2026-04-16 05:26 | 12.32146 | 123.68897 | 14930 ft | 199 kts | 125° |
| 2026-04-16 05:26 | 12.31269 | 123.69998 | 14931 ft | 199 kts | 125° |
| 2026-04-16 05:26 | 12.30391 | 123.71094 | 14931 ft | 199 kts | 125° |
| 2026-04-16 05:26 | 12.29515 | 123.72182 | 14929 ft | 199 kts | 126° |
| 2026-04-16 05:27 | 12.28632 | 123.73276 | 14930 ft | 199 kts | 125° |
| 2026-04-16 05:27 | 12.27751 | 123.74366 | 14933 ft | 199 kts | 126° |
| 2026-04-16 05:27 | 12.26865 | 123.75461 | 14931 ft | 199 kts | 126° |
| 2026-04-16 05:27 | 12.25977 | 123.76558 | 14932 ft | 200 kts | 126° |
| 2026-04-16 05:28 | 12.25090 | 123.77652 | 14929 ft | 200 kts | 125° |
| 2026-04-16 05:28 | 12.24194 | 123.78758 | 14930 ft | 199 kts | 126° |
| 2026-04-16 05:28 | 12.23310 | 123.79849 | 14932 ft | 200 kts | 125° |
| 2026-04-16 05:28 | 12.22424 | 123.80943 | 14930 ft | 200 kts | 126° |
| 2026-04-16 05:29 | 12.21534 | 123.82040 | 14926 ft | 199 kts | 126° |
| 2026-04-16 05:29 | 12.20652 | 123.83128 | 14927 ft | 199 kts | 126° |
| 2026-04-16 05:29 | 12.19768 | 123.84219 | 14929 ft | 199 kts | 125° |
| 2026-04-16 05:29 | 12.18884 | 123.85308 | 14931 ft | 199 kts | 126° |
| 2026-04-16 05:30 | 12.17999 | 123.86399 | 14930 ft | 199 kts | 126° |
| 2026-04-16 05:30 | 12.17107 | 123.87499 | 14931 ft | 199 kts | 126° |
| 2026-04-16 05:30 | 12.16227 | 123.88584 | 14921 ft | 199 kts | 126° |
| 2026-04-16 05:30 | 12.15334 | 123.89686 | 14927 ft | 199 kts | 125° |
| 2026-04-16 05:31 | 12.14452 | 123.90773 | 14933 ft | 199 kts | 126° |
| 2026-04-16 05:31 | 12.13568 | 123.91861 | 14932 ft | 200 kts | 126° |
| 2026-04-16 05:31 | 12.12682 | 123.92953 | 14930 ft | 200 kts | 125° |
| 2026-04-16 05:31 | 12.11794 | 123.94048 | 14933 ft | 200 kts | 126° |
| 2026-04-16 05:32 | 12.10897 | 123.95152 | 14928 ft | 200 kts | 126° |
| 2026-04-16 05:32 | 12.10021 | 123.96232 | 14927 ft | 199 kts | 126° |
| 2026-04-16 05:32 | 12.09131 | 123.97327 | 14933 ft | 200 kts | 125° |
| 2026-04-16 05:32 | 12.08239 | 123.98425 | 14929 ft | 200 kts | 125° |
| 2026-04-16 05:33 | 12.07351 | 123.99519 | 14930 ft | 200 kts | 126° |
| 2026-04-16 05:33 | 12.06461 | 124.00615 | 14930 ft | 200 kts | 126° |
| 2026-04-16 05:33 | 12.05573 | 124.01708 | 14929 ft | 200 kts | 125° |
| 2026-04-16 05:33 | 12.04688 | 124.02798 | 14928 ft | 200 kts | 126° |
| 2026-04-16 05:34 | 12.03798 | 124.03893 | 14934 ft | 200 kts | 126° |
| 2026-04-16 05:34 | 12.02906 | 124.04990 | 14931 ft | 200 kts | 126° |
| 2026-04-16 05:34 | 12.02022 | 124.06078 | 14930 ft | 200 kts | 125° |
| 2026-04-16 05:34 | 12.01139 | 124.07166 | 14922 ft | 199 kts | 126° |
| 2026-04-16 05:35 | 12.00250 | 124.08259 | 14925 ft | 199 kts | 126° |
| 2026-04-16 05:35 | 11.99358 | 124.09355 | 14923 ft | 199 kts | 126° |
| 2026-04-16 05:35 | 11.98479 | 124.10437 | 14917 ft | 199 kts | 126° |
| 2026-04-16 05:35 | 11.97587 | 124.11533 | 14931 ft | 199 kts | 125° |
| 2026-04-16 05:36 | 11.96704 | 124.12620 | 14931 ft | 200 kts | 126° |
| 2026-04-16 05:36 | 11.95821 | 124.13705 | 14920 ft | 200 kts | 126° |
| 2026-04-16 05:36 | 11.94932 | 124.14798 | 14922 ft | 199 kts | 125° |
| 2026-04-16 05:36 | 11.94041 | 124.15894 | 14917 ft | 199 kts | 126° |
| 2026-04-16 05:37 | 11.93146 | 124.16993 | 14922 ft | 199 kts | 126° |
| 2026-04-16 05:37 | 11.92262 | 124.18080 | 14926 ft | 200 kts | 126° |
| 2026-04-16 05:37 | 11.91376 | 124.19170 | 14926 ft | 200 kts | 125° |
| 2026-04-16 05:37 | 11.90489 | 124.20258 | 14916 ft | 200 kts | 125° |
| 2026-04-16 05:38 | 11.89591 | 124.21362 | 14919 ft | 199 kts | 125° |
| 2026-04-16 05:38 | 11.88714 | 124.22440 | 14923 ft | 199 kts | 126° |
| 2026-04-16 05:38 | 11.87827 | 124.23530 | 14916 ft | 199 kts | 126° |
| 2026-04-16 05:38 | 11.86938 | 124.24620 | 14916 ft | 199 kts | 125° |
| 2026-04-16 05:39 | 11.86038 | 124.25713 | 14922 ft | 200 kts | 129° |
| 2026-04-16 05:39 | 11.85021 | 124.26681 | 14922 ft | 198 kts | 125° |
| 2026-04-16 05:39 | 11.84190 | 124.27799 | 14915 ft | 198 kts | 122° |
| 2026-04-16 05:39 | 11.83356 | 124.28904 | 14915 ft | 197 kts | 124° |
| 2026-04-16 05:40 | 11.82492 | 124.30014 | 14911 ft | 197 kts | 124° |
| 2026-04-16 05:40 | 11.81624 | 124.31107 | 14915 ft | 198 kts | 125° |
| 2026-04-16 05:40 | 11.80752 | 124.32194 | 14916 ft | 198 kts | 126° |
| 2026-04-16 05:40 | 11.79876 | 124.33278 | 14914 ft | 198 kts | 126° |
| 2026-04-16 05:41 | 11.78990 | 124.34370 | 14918 ft | 198 kts | 126° |
| 2026-04-16 05:41 | 11.78107 | 124.35457 | 14921 ft | 199 kts | 126° |
| 2026-04-16 05:41 | 11.77229 | 124.36536 | 14931 ft | 200 kts | 126° |
| 2026-04-16 05:41 | 11.76333 | 124.37635 | 14915 ft | 200 kts | 126° |
| 2026-04-16 05:42 | 11.75445 | 124.38725 | 14911 ft | 199 kts | 126° |
| 2026-04-16 05:42 | 11.74554 | 124.39817 | 14912 ft | 199 kts | 126° |
| 2026-04-16 05:42 | 11.73678 | 124.40891 | 14916 ft | 199 kts | 126° |
| 2026-04-16 05:42 | 11.72784 | 124.41988 | 14918 ft | 199 kts | 126° |
| 2026-04-16 05:43 | 11.71903 | 124.43068 | 14918 ft | 199 kts | 126° |
| 2026-04-16 05:43 | 11.71012 | 124.44160 | 14915 ft | 199 kts | 125° |
| 2026-04-16 05:43 | 11.70133 | 124.45238 | 14923 ft | 199 kts | 125° |
| 2026-04-16 05:43 | 11.69238 | 124.46334 | 14922 ft | 199 kts | 126° |
| 2026-04-16 05:44 | 11.68364 | 124.47406 | 14930 ft | 199 kts | 126° |
| 2026-04-16 05:44 | 11.67473 | 124.48498 | 14930 ft | 199 kts | 126° |
| 2026-04-16 05:44 | 11.66583 | 124.49587 | 14934 ft | 199 kts | 125° |
| 2026-04-16 05:44 | 11.65698 | 124.50672 | 14938 ft | 199 kts | 126° |
| 2026-04-16 05:45 | 11.64805 | 124.51765 | 14934 ft | 200 kts | 126° |
| 2026-04-16 05:45 | 11.63918 | 124.52852 | 14937 ft | 200 kts | 125° |
| 2026-04-16 05:45 | 11.63023 | 124.53947 | 14938 ft | 200 kts | 126° |
| 2026-04-16 05:45 | 11.62133 | 124.55037 | 14933 ft | 200 kts | 126° |
| 2026-04-16 05:46 | 11.61238 | 124.56132 | 14932 ft | 200 kts | 126° |
| 2026-04-16 05:46 | 11.60319 | 124.57260 | 14601 ft | 214 kts | 126° |
| 2026-04-16 05:46 | 11.59356 | 124.58440 | 14324 ft | 219 kts | 126° |
| 2026-04-16 05:46 | 11.58377 | 124.59637 | 14083 ft | 219 kts | 126° |
| 2026-04-16 05:47 | 11.57414 | 124.60812 | 13831 ft | 212 kts | 126° |
| 2026-04-16 05:47 | 11.56493 | 124.61935 | 13554 ft | 201 kts | 126° |
| 2026-04-16 05:47 | 11.55612 | 124.63013 | 13274 ft | 195 kts | 126° |
| 2026-04-16 05:47 | 11.54759 | 124.64057 | 12989 ft | 191 kts | 125° |
| 2026-04-16 05:48 | 11.53905 | 124.65104 | 12732 ft | 189 kts | 125° |
| 2026-04-16 05:48 | 11.53060 | 124.66142 | 12485 ft | 192 kts | 125° |
| 2026-04-16 05:48 | 11.52205 | 124.67191 | 12263 ft | 196 kts | 125° |
| 2026-04-16 05:48 | 11.51330 | 124.68261 | 12029 ft | 196 kts | 126° |
| 2026-04-16 05:49 | 11.50454 | 124.69331 | 11815 ft | 195 kts | 126° |
| 2026-04-16 05:49 | 11.49463 | 124.70305 | 11583 ft | 201 kts | 139° |
| 2026-04-16 05:49 | 11.48313 | 124.71102 | 11372 ft | 199 kts | 142° |
| 2026-04-16 05:49 | 11.47181 | 124.71880 | 11171 ft | 196 kts | 141° |
| 2026-04-16 05:50 | 11.46053 | 124.72659 | 10962 ft | 194 kts | 141° |
| 2026-04-16 05:50 | 11.44939 | 124.73432 | 10736 ft | 192 kts | 141° |
| 2026-04-16 05:50 | 11.43833 | 124.74200 | 10513 ft | 191 kts | 141° |
| 2026-04-16 05:50 | 11.42738 | 124.74960 | 10283 ft | 190 kts | 141° |
| 2026-04-16 05:51 | 11.41642 | 124.75719 | 10036 ft | 190 kts | 141° |
| 2026-04-16 05:51 | 11.40541 | 124.76484 | 9777 ft | 190 kts | 141° |
| 2026-04-16 05:51 | 11.39445 | 124.77243 | 9519 ft | 190 kts | 141° |
| 2026-04-16 05:51 | 11.38352 | 124.78001 | 9289 ft | 189 kts | 141° |
| 2026-04-16 05:52 | 11.37268 | 124.78754 | 9048 ft | 188 kts | 141° |
| 2026-04-16 05:52 | 11.36198 | 124.79495 | 8804 ft | 187 kts | 140° |
| 2026-04-16 05:52 | 11.35113 | 124.80248 | 8555 ft | 187 kts | 141° |
| 2026-04-16 05:52 | 11.34046 | 124.80988 | 8308 ft | 187 kts | 141° |
| 2026-04-16 05:53 | 11.32972 | 124.81732 | 8067 ft | 186 kts | 142° |
| 2026-04-16 05:53 | 11.31896 | 124.82478 | 7820 ft | 185 kts | 142° |
| 2026-04-16 05:53 | 11.30826 | 124.83220 | 7575 ft | 185 kts | 141° |
| 2026-04-16 05:53 | 11.29758 | 124.83959 | 7332 ft | 185 kts | 142° |
| 2026-04-16 05:54 | 11.28690 | 124.84699 | 7096 ft | 185 kts | 141° |
| 2026-04-16 05:54 | 11.27636 | 124.85429 | 6867 ft | 184 kts | 142° |
| 2026-04-16 05:54 | 11.26558 | 124.86154 | 6617 ft | 184 kts | 149° |
| 2026-04-16 05:54 | 11.25326 | 124.86545 | 6357 ft | 185 kts | 165° |
| 2026-04-16 05:55 | 11.24062 | 124.86822 | 6119 ft | 185 kts | 166° |
| 2026-04-16 05:55 | 11.22804 | 124.87098 | 5876 ft | 184 kts | 165° |
| 2026-04-16 05:55 | 11.21551 | 124.87376 | 5645 ft | 184 kts | 165° |
| 2026-04-16 05:55 | 11.20292 | 124.87656 | 5411 ft | 184 kts | 165° |
| 2026-04-16 05:56 | 11.19048 | 124.87934 | 5185 ft | 183 kts | 165° |
| 2026-04-16 05:56 | 11.17805 | 124.88210 | 4952 ft | 182 kts | 165° |
| 2026-04-16 05:56 | 11.16565 | 124.88487 | 4724 ft | 182 kts | 166° |
| 2026-04-16 05:56 | 11.15323 | 124.88764 | 4491 ft | 181 kts | 165° |
| 2026-04-16 05:57 | 11.14090 | 124.89038 | 4259 ft | 179 kts | 165° |
| 2026-04-16 05:57 | 11.12877 | 124.89309 | 4028 ft | 179 kts | 166° |
| 2026-04-16 05:57 | 11.11664 | 124.89578 | 3796 ft | 177 kts | 166° |
| 2026-04-16 05:57 | 11.10464 | 124.89846 | 3561 ft | 175 kts | 166° |
| 2026-04-16 05:58 | 11.09275 | 124.90111 | 3322 ft | 174 kts | 166° |
| 2026-04-16 05:58 | 11.08089 | 124.90375 | 3087 ft | 173 kts | 166° |
| 2026-04-16 05:58 | 11.06897 | 124.90640 | 2849 ft | 173 kts | 166° |
| 2026-04-16 05:58 | 11.05731 | 124.90900 | 2619 ft | 172 kts | 166° |
| 2026-04-16 05:59 | 11.04606 | 124.91248 | 2500 ft | 160 kts | 143° |
| 2026-04-16 05:59 | 11.03990 | 124.92136 | 2526 ft | 156 kts | 105° |
| 2026-04-16 05:59 | 11.03781 | 124.93230 | 2530 ft | 159 kts | 96° |
| 2026-04-16 05:59 | 11.03662 | 124.94364 | 2525 ft | 162 kts | 93° |
| 2026-04-16 06:00 | 11.03571 | 124.95483 | 2513 ft | 153 kts | 92° |
| 2026-04-16 06:00 | 11.03497 | 124.96503 | 2520 ft | 133 kts | 92° |
| 2026-04-16 06:00 | 11.03438 | 124.97366 | 2519 ft | 114 kts | 92° |
| 2026-04-16 06:00 | 11.03386 | 124.98160 | 2512 ft | 111 kts | 91° |
| 2026-04-16 06:01 | 11.03336 | 124.98936 | 2506 ft | 109 kts | 92° |
| 2026-04-16 06:01 | 11.03286 | 124.99702 | 2502 ft | 108 kts | 90° |
| 2026-04-16 06:01 | 11.03242 | 125.00462 | 2501 ft | 107 kts | 86° |
| 2026-04-16 06:01 | 11.03542 | 125.01121 | 2464 ft | 108 kts | 43° |
| 2026-04-16 06:02 | 11.05034 | 125.01538 | 2134 ft | 113 kts | 8° |
| 2026-04-16 06:02 | 11.05816 | 125.01616 | 2004 ft | 111 kts | 8° |
| 2026-04-16 06:02 | 11.06566 | 125.01678 | 1935 ft | 103 kts | 7° |
| 2026-04-16 06:03 | 11.07276 | 125.01733 | 1888 ft | 100 kts | 7° |
| 2026-04-16 06:03 | 11.07974 | 125.01784 | 1841 ft | 99 kts | 7° |
| 2026-04-16 06:03 | 11.08661 | 125.01832 | 1795 ft | 99 kts | 7° |
| 2026-04-16 06:03 | 11.09356 | 125.01880 | 1751 ft | 100 kts | 7° |
| 2026-04-16 06:04 | 11.10061 | 125.01928 | 1718 ft | 100 kts | 7° |
| 2026-04-16 06:04 | 11.10766 | 125.01976 | 1683 ft | 101 kts | 7° |
| 2026-04-16 06:04 | 11.11463 | 125.02023 | 1658 ft | 99 kts | 7° |
| 2026-04-16 06:04 | 11.12156 | 125.02068 | 1674 ft | 97 kts | 7° |
| 2026-04-16 06:05 | 11.12841 | 125.02114 | 1629 ft | 103 kts | 7° |
| 2026-04-16 06:05 | 11.13581 | 125.02165 | 1521 ft | 108 kts | 7° |
| 2026-04-16 06:05 | 11.14332 | 125.02213 | 1401 ft | 106 kts | 6° |
| 2026-04-16 06:05 | 11.15071 | 125.02262 | 1278 ft | 104 kts | 7° |
| 2026-04-16 06:06 | 11.15799 | 125.02310 | 1151 ft | 105 kts | 7° |
| 2026-04-16 06:06 | 11.16530 | 125.02359 | 1023 ft | 105 kts | 8° |
| 2026-04-16 06:06 | 11.17271 | 125.02409 | 889 ft | 106 kts | 7° |
| 2026-04-16 06:06 | 11.18010 | 125.02461 | 760 ft | 106 kts | 8° |
| 2026-04-16 06:07 | 11.18757 | 125.02505 | 641 ft | 107 kts | 7° |
| 2026-04-16 06:07 | 11.19503 | 125.02556 | 493 ft | 109 kts | 7° |
| 2026-04-16 06:07 | 11.20251 | 125.02596 | 350 ft | 107 kts | 8° |
| 2026-04-16 06:07 | 11.20998 | 125.02652 | 202 ft | 105 kts | 8° |
| 2026-04-16 06:08 | 11.21721 | 125.02704 | 48 ft | 98 kts | 8° |
| 2026-04-16 06:08 | 11.22258 | 125.02740 | 17 ft | 38 kts | 4° |
| 2026-04-16 06:08 | 11.22286 | 125.02733 | 17 ft | 7 kts | 180° |
| 2026-04-16 06:08 | 11.22212 | 125.02699 | 17 ft | 17 kts | 260° |
| 2026-04-16 06:09 | 11.22215 | 125.02624 | 17 ft | 0 kts | 269° |
| 2026-04-16 06:09 | 11.22215 | 125.02623 | 17 ft | 0 kts | 269° |
| 2026-04-16 06:10 | 11.22215 | 125.02624 | 17 ft | 0 kts | 269° |